sensor_id;sensor_type;location;lat;lon;timestamp;P1;durP1;ratioP1;P2;durP2;ratioP2
15198;SDS011;7700;48.654;9.070;2022-12-07T00:03:32;8.37;;;6.83;;
15198;SDS011;7700;48.654;9.070;2022-12-07T00:05:59;8.70;;;7.13;;
15198;SDS011;7700;48.654;9.070;2022-12-07T00:08:25;9.53;;;7.40;;
15198;SDS011;7700;48.654;9.070;2022-12-07T00:10:50;7.63;;;6.77;;
15198;SDS011;7700;48.654;9.070;2022-12-07T00:13:16;7.70;;;6.60;;
15198;SDS011;7700;48.654;9.070;2022-12-07T00:15:43;8.43;;;6.53;;
15198;SDS011;7700;48.654;9.070;2022-12-07T00:18:09;10.13;;;6.77;;
15198;SDS011;7700;48.654;9.070;2022-12-07T00:20:35;11.50;;;7.20;;
15198;SDS011;7700;48.654;9.070;2022-12-07T00:23:01;10.47;;;7.63;;
15198;SDS011;7700;48.654;9.070;2022-12-07T00:25:27;7.43;;;6.43;;
15198;SDS011;7700;48.654;9.070;2022-12-07T00:27:53;7.90;;;7.13;;
15198;SDS011;7700;48.654;9.070;2022-12-07T00:30:22;8.27;;;7.27;;
15198;SDS011;7700;48.654;9.070;2022-12-07T00:32:48;9.43;;;7.27;;
15198;SDS011;7700;48.654;9.070;2022-12-07T00:35:14;8.50;;;6.27;;
15198;SDS011;7700;48.654;9.070;2022-12-07T00:37:40;7.60;;;6.60;;
15198;SDS011;7700;48.654;9.070;2022-12-07T00:40:06;7.57;;;6.63;;
15198;SDS011;7700;48.654;9.070;2022-12-07T00:42:33;7.27;;;6.40;;
15198;SDS011;7700;48.654;9.070;2022-12-07T00:44:59;8.60;;;6.50;;
15198;SDS011;7700;48.654;9.070;2022-12-07T00:47:25;8.03;;;6.57;;
15198;SDS011;7700;48.654;9.070;2022-12-07T00:49:51;7.37;;;6.47;;
15198;SDS011;7700;48.654;9.070;2022-12-07T00:52:17;6.60;;;5.73;;
15198;SDS011;7700;48.654;9.070;2022-12-07T00:54:43;7.07;;;6.37;;
15198;SDS011;7700;48.654;9.070;2022-12-07T00:57:09;7.17;;;6.47;;
15198;SDS011;7700;48.654;9.070;2022-12-07T00:59:35;7.50;;;6.63;;
15198;SDS011;7700;48.654;9.070;2022-12-07T01:02:01;7.30;;;6.30;;
15198;SDS011;7700;48.654;9.070;2022-12-07T01:04:27;7.80;;;6.57;;
15198;SDS011;7700;48.654;9.070;2022-12-07T01:06:53;9.27;;;7.20;;
15198;SDS011;7700;48.654;9.070;2022-12-07T01:09:19;8.70;;;6.67;;
15198;SDS011;7700;48.654;9.070;2022-12-07T01:11:45;8.50;;;6.27;;
15198;SDS011;7700;48.654;9.070;2022-12-07T01:14:11;7.97;;;7.17;;
15198;SDS011;7700;48.654;9.070;2022-12-07T01:16:38;8.43;;;7.53;;
15198;SDS011;7700;48.654;9.070;2022-12-07T01:19:05;8.80;;;7.23;;
15198;SDS011;7700;48.654;9.070;2022-12-07T01:21:32;8.10;;;7.30;;
15198;SDS011;7700;48.654;9.070;2022-12-07T01:24:00;7.77;;;7.03;;
15198;SDS011;7700;48.654;9.070;2022-12-07T01:26:28;9.17;;;8.23;;
15198;SDS011;7700;48.654;9.070;2022-12-07T01:28:54;9.03;;;7.30;;
15198;SDS011;7700;48.654;9.070;2022-12-07T01:31:21;8.30;;;7.50;;
15198;SDS011;7700;48.654;9.070;2022-12-07T01:33:49;8.47;;;7.67;;
15198;SDS011;7700;48.654;9.070;2022-12-07T01:38:41;9.10;;;8.20;;
15198;SDS011;7700;48.654;9.070;2022-12-07T01:41:08;9.13;;;8.23;;
15198;SDS011;7700;48.654;9.070;2022-12-07T01:43:34;9.17;;;8.27;;
15198;SDS011;7700;48.654;9.070;2022-12-07T01:46:01;8.97;;;8.17;;
15198;SDS011;7700;48.654;9.070;2022-12-07T01:50:53;9.60;;;8.60;;
15198;SDS011;7700;48.654;9.070;2022-12-07T01:53:19;10.50;;;9.37;;
15198;SDS011;7700;48.654;9.070;2022-12-07T01:55:47;10.87;;;8.73;;
15198;SDS011;7700;48.654;9.070;2022-12-07T01:58:15;10.40;;;8.73;;
15198;SDS011;7700;48.654;9.070;2022-12-07T02:00:42;9.30;;;8.40;;
15198;SDS011;7700;48.654;9.070;2022-12-07T02:03:30;9.83;;;8.63;;
15198;SDS011;7700;48.654;9.070;2022-12-07T02:05:54;9.83;;;7.80;;
15198;SDS011;7700;48.654;9.070;2022-12-07T02:08:21;10.63;;;9.00;;
15198;SDS011;7700;48.654;9.070;2022-12-07T02:10:47;11.07;;;8.33;;
15198;SDS011;7700;48.654;9.070;2022-12-07T02:13:34;9.43;;;8.47;;
15198;SDS011;7700;48.654;9.070;2022-12-07T02:21:25;9.67;;;8.67;;
15198;SDS011;7700;48.654;9.070;2022-12-07T02:31:35;9.60;;;8.63;;
15198;SDS011;7700;48.654;9.070;2022-12-07T02:34:07;9.87;;;8.20;;
15198;SDS011;7700;48.654;9.070;2022-12-07T02:36:38;9.53;;;8.33;;
15198;SDS011;7700;48.654;9.070;2022-12-07T02:39:07;9.47;;;8.57;;
15198;SDS011;7700;48.654;9.070;2022-12-07T02:41:36;9.47;;;8.57;;
15198;SDS011;7700;48.654;9.070;2022-12-07T02:44:04;9.47;;;8.57;;
15198;SDS011;7700;48.654;9.070;2022-12-07T02:46:36;9.53;;;8.07;;
15198;SDS011;7700;48.654;9.070;2022-12-07T02:49:03;9.03;;;8.13;;
15198;SDS011;7700;48.654;9.070;2022-12-07T02:51:30;10.30;;;8.87;;
15198;SDS011;7700;48.654;9.070;2022-12-07T02:53:56;8.27;;;7.47;;
15198;SDS011;7700;48.654;9.070;2022-12-07T02:59:22;8.80;;;7.90;;
15198;SDS011;7700;48.654;9.070;2022-12-07T03:07:03;9.60;;;8.70;;
15198;SDS011;7700;48.654;9.070;2022-12-07T03:09:44;9.93;;;8.63;;
15198;SDS011;7700;48.654;9.070;2022-12-07T03:12:18;10.03;;;8.53;;
15198;SDS011;7700;48.654;9.070;2022-12-07T03:14:48;10.17;;;9.03;;
15198;SDS011;7700;48.654;9.070;2022-12-07T03:17:16;9.47;;;8.33;;
15198;SDS011;7700;48.654;9.070;2022-12-07T03:19:44;11.17;;;9.20;;
15198;SDS011;7700;48.654;9.070;2022-12-07T03:22:12;9.93;;;8.90;;
15198;SDS011;7700;48.654;9.070;2022-12-07T03:24:45;10.10;;;9.10;;
15198;SDS011;7700;48.654;9.070;2022-12-07T03:27:18;11.13;;;9.63;;
15198;SDS011;7700;48.654;9.070;2022-12-07T03:29:47;10.23;;;9.10;;
15198;SDS011;7700;48.654;9.070;2022-12-07T03:32:49;9.87;;;8.73;;
15198;SDS011;7700;48.654;9.070;2022-12-07T03:38:04;10.57;;;9.13;;
15198;SDS011;7700;48.654;9.070;2022-12-07T03:40:33;11.13;;;9.27;;
15198;SDS011;7700;48.654;9.070;2022-12-07T03:43:00;11.27;;;8.90;;
15198;SDS011;7700;48.654;9.070;2022-12-07T03:45:31;9.67;;;8.67;;
15198;SDS011;7700;48.654;9.070;2022-12-07T03:50:46;10.87;;;8.77;;
15198;SDS011;7700;48.654;9.070;2022-12-07T03:53:15;9.17;;;8.20;;
15198;SDS011;7700;48.654;9.070;2022-12-07T03:55:44;9.70;;;8.70;;
15198;SDS011;7700;48.654;9.070;2022-12-07T03:58:12;10.43;;;8.17;;
15198;SDS011;7700;48.654;9.070;2022-12-07T04:00:40;9.13;;;8.23;;
15198;SDS011;7700;48.654;9.070;2022-12-07T04:03:06;9.33;;;8.43;;
15198;SDS011;7700;48.654;9.070;2022-12-07T04:05:32;9.33;;;8.40;;
15198;SDS011;7700;48.654;9.070;2022-12-07T04:07:59;9.77;;;8.77;;
15198;SDS011;7700;48.654;9.070;2022-12-07T04:10:24;10.53;;;9.23;;
15198;SDS011;7700;48.654;9.070;2022-12-07T04:12:50;10.43;;;8.47;;
15198;SDS011;7700;48.654;9.070;2022-12-07T04:15:16;9.27;;;8.30;;
15198;SDS011;7700;48.654;9.070;2022-12-07T04:17:42;9.03;;;8.10;;
15198;SDS011;7700;48.654;9.070;2022-12-07T04:20:09;9.90;;;8.83;;
15198;SDS011;7700;48.654;9.070;2022-12-07T04:22:35;10.27;;;9.17;;
15198;SDS011;7700;48.654;9.070;2022-12-07T04:25:01;10.87;;;9.20;;
15198;SDS011;7700;48.654;9.070;2022-12-07T04:27:27;8.57;;;7.77;;
15198;SDS011;7700;48.654;9.070;2022-12-07T04:29:53;9.27;;;8.13;;
15198;SDS011;7700;48.654;9.070;2022-12-07T04:32:20;11.63;;;9.93;;
15198;SDS011;7700;48.654;9.070;2022-12-07T04:34:46;12.03;;;10.53;;
15198;SDS011;7700;48.654;9.070;2022-12-07T04:37:12;11.13;;;9.90;;
15198;SDS011;7700;48.654;9.070;2022-12-07T04:39:38;11.87;;;9.83;;
15198;SDS011;7700;48.654;9.070;2022-12-07T04:42:04;10.13;;;7.93;;
15198;SDS011;7700;48.654;9.070;2022-12-07T04:44:30;8.20;;;7.40;;
15198;SDS011;7700;48.654;9.070;2022-12-07T04:46:57;9.73;;;8.73;;
15198;SDS011;7700;48.654;9.070;2022-12-07T04:49:23;9.43;;;8.40;;
15198;SDS011;7700;48.654;9.070;2022-12-07T04:51:50;9.27;;;8.30;;
15198;SDS011;7700;48.654;9.070;2022-12-07T04:54:16;8.93;;;8.03;;
15198;SDS011;7700;48.654;9.070;2022-12-07T04:56:42;9.27;;;8.17;;
15198;SDS011;7700;48.654;9.070;2022-12-07T04:59:09;10.23;;;8.27;;
15198;SDS011;7700;48.654;9.070;2022-12-07T05:01:35;9.20;;;8.20;;
15198;SDS011;7700;48.654;9.070;2022-12-07T05:04:01;12.83;;;8.53;;
15198;SDS011;7700;48.654;9.070;2022-12-07T05:06:27;9.17;;;8.23;;
15198;SDS011;7700;48.654;9.070;2022-12-07T05:08:53;9.33;;;8.33;;
15198;SDS011;7700;48.654;9.070;2022-12-07T05:11:19;9.47;;;8.47;;
15198;SDS011;7700;48.654;9.070;2022-12-07T05:14:14;9.33;;;8.43;;
15198;SDS011;7700;48.654;9.070;2022-12-07T05:16:40;9.63;;;8.63;;
15198;SDS011;7700;48.654;9.070;2022-12-07T05:19:07;8.63;;;7.67;;
15198;SDS011;7700;48.654;9.070;2022-12-07T05:21:33;9.50;;;8.10;;
15198;SDS011;7700;48.654;9.070;2022-12-07T05:23:59;9.70;;;8.07;;
15198;SDS011;7700;48.654;9.070;2022-12-07T05:26:26;10.07;;;8.40;;
15198;SDS011;7700;48.654;9.070;2022-12-07T05:28:52;9.73;;;8.73;;
15198;SDS011;7700;48.654;9.070;2022-12-07T05:31:18;10.27;;;8.83;;
15198;SDS011;7700;48.654;9.070;2022-12-07T05:33:45;9.30;;;8.30;;
15198;SDS011;7700;48.654;9.070;2022-12-07T05:36:11;8.60;;;7.77;;
15198;SDS011;7700;48.654;9.070;2022-12-07T05:38:37;10.20;;;8.30;;
15198;SDS011;7700;48.654;9.070;2022-12-07T05:41:04;9.17;;;7.97;;
15198;SDS011;7700;48.654;9.070;2022-12-07T05:43:30;10.57;;;8.77;;
15198;SDS011;7700;48.654;9.070;2022-12-07T05:45:56;15.90;;;10.50;;
15198;SDS011;7700;48.654;9.070;2022-12-07T05:48:22;13.23;;;10.03;;
15198;SDS011;7700;48.654;9.070;2022-12-07T05:50:49;11.83;;;8.63;;
15198;SDS011;7700;48.654;9.070;2022-12-07T05:53:15;11.80;;;8.83;;
15198;SDS011;7700;48.654;9.070;2022-12-07T05:55:41;11.80;;;8.97;;
15198;SDS011;7700;48.654;9.070;2022-12-07T05:58:07;9.90;;;8.20;;
15198;SDS011;7700;48.654;9.070;2022-12-07T06:00:54;9.13;;;8.23;;
15198;SDS011;7700;48.654;9.070;2022-12-07T06:03:20;9.10;;;8.00;;
15198;SDS011;7700;48.654;9.070;2022-12-07T06:05:46;9.13;;;8.17;;
15198;SDS011;7700;48.654;9.070;2022-12-07T06:08:12;9.93;;;7.77;;
15198;SDS011;7700;48.654;9.070;2022-12-07T06:10:39;9.23;;;8.23;;
15198;SDS011;7700;48.654;9.070;2022-12-07T06:13:06;12.53;;;8.50;;
15198;SDS011;7700;48.654;9.070;2022-12-07T06:15:32;13.43;;;9.63;;
15198;SDS011;7700;48.654;9.070;2022-12-07T06:17:58;13.63;;;9.70;;
15198;SDS011;7700;48.654;9.070;2022-12-07T06:20:24;15.13;;;11.23;;
15198;SDS011;7700;48.654;9.070;2022-12-07T06:22:50;10.67;;;9.33;;
15198;SDS011;7700;48.654;9.070;2022-12-07T06:25:16;11.30;;;9.13;;
15198;SDS011;7700;48.654;9.070;2022-12-07T06:27:42;12.43;;;9.10;;
15198;SDS011;7700;48.654;9.070;2022-12-07T06:30:08;9.13;;;8.10;;
15198;SDS011;7700;48.654;9.070;2022-12-07T06:32:35;10.27;;;8.27;;
15198;SDS011;7700;48.654;9.070;2022-12-07T06:35:02;9.23;;;8.10;;
15198;SDS011;7700;48.654;9.070;2022-12-07T06:37:28;9.60;;;8.37;;
15198;SDS011;7700;48.654;9.070;2022-12-07T06:39:54;9.93;;;8.00;;
15198;SDS011;7700;48.654;9.070;2022-12-07T06:42:21;11.20;;;8.47;;
15198;SDS011;7700;48.654;9.070;2022-12-07T06:44:47;9.83;;;8.40;;
15198;SDS011;7700;48.654;9.070;2022-12-07T06:47:13;9.53;;;8.57;;
15198;SDS011;7700;48.654;9.070;2022-12-07T06:49:39;9.07;;;8.10;;
15198;SDS011;7700;48.654;9.070;2022-12-07T06:52:05;9.00;;;7.53;;
15198;SDS011;7700;48.654;9.070;2022-12-07T06:54:31;9.60;;;7.87;;
15198;SDS011;7700;48.654;9.070;2022-12-07T06:56:57;10.30;;;8.13;;
15198;SDS011;7700;48.654;9.070;2022-12-07T06:59:23;9.40;;;8.03;;
15198;SDS011;7700;48.654;9.070;2022-12-07T07:01:49;10.43;;;8.60;;
15198;SDS011;7700;48.654;9.070;2022-12-07T07:04:15;10.10;;;8.50;;
15198;SDS011;7700;48.654;9.070;2022-12-07T07:06:41;10.57;;;8.60;;
15198;SDS011;7700;48.654;9.070;2022-12-07T07:09:07;9.93;;;8.77;;
15198;SDS011;7700;48.654;9.070;2022-12-07T07:11:34;11.37;;;9.07;;
15198;SDS011;7700;48.654;9.070;2022-12-07T07:14:00;10.63;;;9.40;;
15198;SDS011;7700;48.654;9.070;2022-12-07T07:16:27;12.60;;;10.17;;
15198;SDS011;7700;48.654;9.070;2022-12-07T07:18:54;13.30;;;10.00;;
15198;SDS011;7700;48.654;9.070;2022-12-07T07:21:20;10.43;;;8.63;;
15198;SDS011;7700;48.654;9.070;2022-12-07T07:23:46;11.07;;;9.27;;
15198;SDS011;7700;48.654;9.070;2022-12-07T07:26:12;12.57;;;9.47;;
15198;SDS011;7700;48.654;9.070;2022-12-07T07:28:38;12.50;;;9.97;;
15198;SDS011;7700;48.654;9.070;2022-12-07T07:31:04;11.20;;;9.47;;
15198;SDS011;7700;48.654;9.070;2022-12-07T07:33:30;12.60;;;9.67;;
15198;SDS011;7700;48.654;9.070;2022-12-07T07:35:56;12.07;;;9.67;;
15198;SDS011;7700;48.654;9.070;2022-12-07T07:38:22;13.90;;;9.77;;
15198;SDS011;7700;48.654;9.070;2022-12-07T07:40:48;10.30;;;8.70;;
15198;SDS011;7700;48.654;9.070;2022-12-07T07:43:14;11.87;;;9.40;;
15198;SDS011;7700;48.654;9.070;2022-12-07T07:45:40;12.03;;;10.07;;
15198;SDS011;7700;48.654;9.070;2022-12-07T07:48:06;11.60;;;9.97;;
15198;SDS011;7700;48.654;9.070;2022-12-07T07:50:32;12.50;;;10.37;;
15198;SDS011;7700;48.654;9.070;2022-12-07T07:52:58;14.67;;;10.67;;
15198;SDS011;7700;48.654;9.070;2022-12-07T07:55:24;12.17;;;9.90;;
15198;SDS011;7700;48.654;9.070;2022-12-07T07:57:50;12.53;;;10.40;;
15198;SDS011;7700;48.654;9.070;2022-12-07T08:00:16;12.50;;;10.50;;
15198;SDS011;7700;48.654;9.070;2022-12-07T08:02:42;13.67;;;11.03;;
15198;SDS011;7700;48.654;9.070;2022-12-07T08:05:08;11.27;;;10.03;;
15198;SDS011;7700;48.654;9.070;2022-12-07T08:07:35;14.40;;;12.43;;
15198;SDS011;7700;48.654;9.070;2022-12-07T08:10:01;17.67;;;13.20;;
15198;SDS011;7700;48.654;9.070;2022-12-07T08:12:27;14.90;;;12.63;;
15198;SDS011;7700;48.654;9.070;2022-12-07T08:14:53;8.93;;;8.03;;
15198;SDS011;7700;48.654;9.070;2022-12-07T08:17:19;10.53;;;8.90;;
15198;SDS011;7700;48.654;9.070;2022-12-07T08:19:45;11.87;;;8.90;;
15198;SDS011;7700;48.654;9.070;2022-12-07T08:22:11;11.27;;;8.50;;
15198;SDS011;7700;48.654;9.070;2022-12-07T08:24:37;11.80;;;8.33;;
15198;SDS011;7700;48.654;9.070;2022-12-07T08:27:03;10.33;;;9.20;;
15198;SDS011;7700;48.654;9.070;2022-12-07T08:29:29;10.20;;;8.47;;
15198;SDS011;7700;48.654;9.070;2022-12-07T08:31:55;9.67;;;7.70;;
15198;SDS011;7700;48.654;9.070;2022-12-07T08:34:21;10.07;;;8.37;;
15198;SDS011;7700;48.654;9.070;2022-12-07T08:36:47;9.23;;;7.90;;
15198;SDS011;7700;48.654;9.070;2022-12-07T08:39:13;10.60;;;8.23;;
15198;SDS011;7700;48.654;9.070;2022-12-07T08:41:39;10.17;;;7.80;;
15198;SDS011;7700;48.654;9.070;2022-12-07T08:44:05;8.27;;;7.47;;
15198;SDS011;7700;48.654;9.070;2022-12-07T08:46:35;8.17;;;7.10;;
15198;SDS011;7700;48.654;9.070;2022-12-07T08:49:12;8.20;;;6.83;;
15198;SDS011;7700;48.654;9.070;2022-12-07T08:51:39;7.07;;;6.37;;
15198;SDS011;7700;48.654;9.070;2022-12-07T08:54:08;7.23;;;6.47;;
15198;SDS011;7700;48.654;9.070;2022-12-07T08:56:34;7.13;;;6.43;;
15198;SDS011;7700;48.654;9.070;2022-12-07T08:59:01;6.87;;;6.17;;
15198;SDS011;7700;48.654;9.070;2022-12-07T09:01:27;6.93;;;5.60;;
15198;SDS011;7700;48.654;9.070;2022-12-07T09:03:53;7.57;;;5.50;;
15198;SDS011;7700;48.654;9.070;2022-12-07T09:06:20;6.10;;;5.50;;
15198;SDS011;7700;48.654;9.070;2022-12-07T09:08:46;7.43;;;5.77;;
15198;SDS011;7700;48.654;9.070;2022-12-07T09:11:13;6.70;;;5.40;;
15198;SDS011;7700;48.654;9.070;2022-12-07T09:13:39;5.90;;;5.30;;
15198;SDS011;7700;48.654;9.070;2022-12-07T09:16:05;6.00;;;5.40;;
15198;SDS011;7700;48.654;9.070;2022-12-07T09:18:31;6.50;;;5.23;;
15198;SDS011;7700;48.654;9.070;2022-12-07T09:20:57;6.40;;;5.47;;
15198;SDS011;7700;48.654;9.070;2022-12-07T09:23:23;6.50;;;5.00;;
15198;SDS011;7700;48.654;9.070;2022-12-07T09:25:49;5.87;;;5.17;;
15198;SDS011;7700;48.654;9.070;2022-12-07T09:28:16;6.47;;;5.60;;
15198;SDS011;7700;48.654;9.070;2022-12-07T09:30:45;5.50;;;4.83;;
15198;SDS011;7700;48.654;9.070;2022-12-07T09:33:12;5.83;;;5.03;;
15198;SDS011;7700;48.654;9.070;2022-12-07T09:35:38;5.83;;;5.23;;
15198;SDS011;7700;48.654;9.070;2022-12-07T09:38:04;5.50;;;4.73;;
15198;SDS011;7700;48.654;9.070;2022-12-07T09:40:30;5.67;;;5.10;;
15198;SDS011;7700;48.654;9.070;2022-12-07T09:42:56;5.23;;;4.73;;
15198;SDS011;7700;48.654;9.070;2022-12-07T09:45:27;7.20;;;5.33;;
15198;SDS011;7700;48.654;9.070;2022-12-07T09:47:55;6.10;;;5.50;;
15198;SDS011;7700;48.654;9.070;2022-12-07T09:50:23;11.33;;;5.47;;
15198;SDS011;7700;48.654;9.070;2022-12-07T09:52:50;5.17;;;4.57;;
15198;SDS011;7700;48.654;9.070;2022-12-07T09:55:19;6.00;;;5.20;;
15198;SDS011;7700;48.654;9.070;2022-12-07T09:57:48;7.50;;;5.17;;
15198;SDS011;7700;48.654;9.070;2022-12-07T10:03:30;6.97;;;4.67;;
15198;SDS011;7700;48.654;9.070;2022-12-07T10:05:56;6.90;;;5.27;;
15198;SDS011;7700;48.654;9.070;2022-12-07T10:08:24;6.37;;;5.60;;
15198;SDS011;7700;48.654;9.070;2022-12-07T10:10:54;5.47;;;4.67;;
15198;SDS011;7700;48.654;9.070;2022-12-07T10:13:39;5.67;;;4.60;;
15198;SDS011;7700;48.654;9.070;2022-12-07T10:16:06;5.80;;;5.20;;
15198;SDS011;7700;48.654;9.070;2022-12-07T10:18:39;7.90;;;5.37;;
15198;SDS011;7700;48.654;9.070;2022-12-07T10:21:15;5.53;;;4.97;;
15198;SDS011;7700;48.654;9.070;2022-12-07T10:23:58;5.97;;;5.37;;
15198;SDS011;7700;48.654;9.070;2022-12-07T10:26:35;6.93;;;5.00;;
15198;SDS011;7700;48.654;9.070;2022-12-07T10:29:02;6.10;;;5.17;;
15198;SDS011;7700;48.654;9.070;2022-12-07T10:31:38;5.40;;;4.83;;
15198;SDS011;7700;48.654;9.070;2022-12-07T10:34:12;5.30;;;4.67;;
15198;SDS011;7700;48.654;9.070;2022-12-07T10:36:41;6.70;;;4.90;;
15198;SDS011;7700;48.654;9.070;2022-12-07T10:39:14;7.10;;;5.37;;
15198;SDS011;7700;48.654;9.070;2022-12-07T10:41:56;6.13;;;4.80;;
15198;SDS011;7700;48.654;9.070;2022-12-07T10:44:24;6.27;;;4.90;;
15198;SDS011;7700;48.654;9.070;2022-12-07T10:46:57;5.67;;;5.10;;
15198;SDS011;7700;48.654;9.070;2022-12-07T10:49:45;8.90;;;5.30;;
15198;SDS011;7700;48.654;9.070;2022-12-07T10:52:18;5.10;;;4.60;;
15198;SDS011;7700;48.654;9.070;2022-12-07T11:01:13;5.13;;;4.43;;
15198;SDS011;7700;48.654;9.070;2022-12-07T11:11:42;5.20;;;4.37;;
15198;SDS011;7700;48.654;9.070;2022-12-07T11:22:00;5.07;;;4.53;;
15198;SDS011;7700;48.654;9.070;2022-12-07T11:24:35;5.87;;;5.00;;
15198;SDS011;7700;48.654;9.070;2022-12-07T11:37:05;6.57;;;4.70;;
15198;SDS011;7700;48.654;9.070;2022-12-07T11:39:39;5.27;;;4.70;;
15198;SDS011;7700;48.654;9.070;2022-12-07T11:42:12;5.57;;;4.47;;
15198;SDS011;7700;48.654;9.070;2022-12-07T11:44:45;5.30;;;4.80;;
15198;SDS011;7700;48.654;9.070;2022-12-07T11:47:17;4.87;;;4.17;;
15198;SDS011;7700;48.654;9.070;2022-12-07T11:52:30;4.87;;;4.37;;
15198;SDS011;7700;48.654;9.070;2022-12-07T11:54:57;6.97;;;5.13;;
15198;SDS011;7700;48.654;9.070;2022-12-07T11:57:33;7.70;;;5.13;;
15198;SDS011;7700;48.654;9.070;2022-12-07T12:00:04;6.63;;;5.37;;
15198;SDS011;7700;48.654;9.070;2022-12-07T12:02:32;6.57;;;4.93;;
15198;SDS011;7700;48.654;9.070;2022-12-07T12:07:59;4.67;;;4.20;;
15198;SDS011;7700;48.654;9.070;2022-12-07T12:13:19;4.30;;;3.90;;
15198;SDS011;7700;48.654;9.070;2022-12-07T12:16:07;4.57;;;3.97;;
15198;SDS011;7700;48.654;9.070;2022-12-07T12:21:04;3.73;;;3.43;;
15198;SDS011;7700;48.654;9.070;2022-12-07T12:23:49;4.33;;;3.87;;
15198;SDS011;7700;48.654;9.070;2022-12-07T12:26:27;4.60;;;4.20;;
15198;SDS011;7700;48.654;9.070;2022-12-07T12:33:50;4.73;;;4.07;;
15198;SDS011;7700;48.654;9.070;2022-12-07T12:36:24;7.43;;;6.23;;
15198;SDS011;7700;48.654;9.070;2022-12-07T12:38:52;5.37;;;4.60;;
15198;SDS011;7700;48.654;9.070;2022-12-07T12:46:56;5.37;;;4.87;;
15198;SDS011;7700;48.654;9.070;2022-12-07T12:51:53;4.80;;;4.30;;
15198;SDS011;7700;48.654;9.070;2022-12-07T12:54:21;5.53;;;4.60;;
15198;SDS011;7700;48.654;9.070;2022-12-07T12:59:21;5.03;;;4.57;;
15198;SDS011;7700;48.654;9.070;2022-12-07T13:01:49;7.33;;;6.63;;
15198;SDS011;7700;48.654;9.070;2022-12-07T13:04:21;9.13;;;7.40;;
15198;SDS011;7700;48.654;9.070;2022-12-07T13:06:48;17.00;;;12.83;;
15198;SDS011;7700;48.654;9.070;2022-12-07T13:09:28;6.33;;;4.97;;
15198;SDS011;7700;48.654;9.070;2022-12-07T13:11:58;26.17;;;16.77;;
15198;SDS011;7700;48.654;9.070;2022-12-07T13:19:56;14.07;;;9.80;;
15198;SDS011;7700;48.654;9.070;2022-12-07T13:25:10;10.37;;;8.73;;
15198;SDS011;7700;48.654;9.070;2022-12-07T13:27:37;5.40;;;4.90;;
15198;SDS011;7700;48.654;9.070;2022-12-07T13:30:09;4.20;;;3.80;;
15198;SDS011;7700;48.654;9.070;2022-12-07T13:32:39;4.07;;;3.77;;
15198;SDS011;7700;48.654;9.070;2022-12-07T13:37:50;4.13;;;2.87;;
15198;SDS011;7700;48.654;9.070;2022-12-07T13:40:17;3.83;;;3.13;;
15198;SDS011;7700;48.654;9.070;2022-12-07T13:42:44;3.30;;;3.00;;
15198;SDS011;7700;48.654;9.070;2022-12-07T13:45:20;3.77;;;3.40;;
15198;SDS011;7700;48.654;9.070;2022-12-07T13:47:52;3.50;;;3.20;;
15198;SDS011;7700;48.654;9.070;2022-12-07T13:50:23;5.93;;;5.40;;
15198;SDS011;7700;48.654;9.070;2022-12-07T13:52:50;5.00;;;4.47;;
15198;SDS011;7700;48.654;9.070;2022-12-07T13:55:20;4.80;;;4.40;;
15198;SDS011;7700;48.654;9.070;2022-12-07T13:57:47;4.97;;;4.47;;
15198;SDS011;7700;48.654;9.070;2022-12-07T14:00:15;5.60;;;4.97;;
15198;SDS011;7700;48.654;9.070;2022-12-07T14:02:54;6.77;;;5.70;;
15198;SDS011;7700;48.654;9.070;2022-12-07T14:05:25;5.13;;;4.53;;
15198;SDS011;7700;48.654;9.070;2022-12-07T14:10:27;4.57;;;4.17;;
15198;SDS011;7700;48.654;9.070;2022-12-07T14:12:54;4.50;;;3.93;;
15198;SDS011;7700;48.654;9.070;2022-12-07T14:15:21;4.23;;;3.83;;
15198;SDS011;7700;48.654;9.070;2022-12-07T14:17:52;6.67;;;5.80;;
15198;SDS011;7700;48.654;9.070;2022-12-07T14:20:31;5.00;;;4.50;;
15198;SDS011;7700;48.654;9.070;2022-12-07T14:22:57;11.43;;;5.33;;
15198;SDS011;7700;48.654;9.070;2022-12-07T14:25:24;7.40;;;4.83;;
15198;SDS011;7700;48.654;9.070;2022-12-07T14:30:20;7.20;;;6.47;;
15198;SDS011;7700;48.654;9.070;2022-12-07T14:32:46;7.40;;;5.30;;
15198;SDS011;7700;48.654;9.070;2022-12-07T14:35:16;5.57;;;4.30;;
15198;SDS011;7700;48.654;9.070;2022-12-07T14:37:43;6.27;;;5.63;;
15198;SDS011;7700;48.654;9.070;2022-12-07T14:40:14;7.80;;;6.67;;
15198;SDS011;7700;48.654;9.070;2022-12-07T14:42:40;5.10;;;4.10;;
15198;SDS011;7700;48.654;9.070;2022-12-07T14:45:13;6.80;;;5.23;;
15198;SDS011;7700;48.654;9.070;2022-12-07T14:47:39;6.43;;;5.83;;
15198;SDS011;7700;48.654;9.070;2022-12-07T14:50:05;6.63;;;6.03;;
15198;SDS011;7700;48.654;9.070;2022-12-07T14:52:31;5.83;;;4.43;;
15198;SDS011;7700;48.654;9.070;2022-12-07T14:54:57;5.30;;;4.80;;
15198;SDS011;7700;48.654;9.070;2022-12-07T14:57:23;4.83;;;4.40;;
15198;SDS011;7700;48.654;9.070;2022-12-07T14:59:49;7.10;;;5.73;;
15198;SDS011;7700;48.654;9.070;2022-12-07T15:02:15;6.30;;;5.57;;
15198;SDS011;7700;48.654;9.070;2022-12-07T15:04:41;6.83;;;5.53;;
15198;SDS011;7700;48.654;9.070;2022-12-07T15:07:15;8.33;;;6.47;;
15198;SDS011;7700;48.654;9.070;2022-12-07T15:09:43;8.10;;;6.40;;
15198;SDS011;7700;48.654;9.070;2022-12-07T15:12:09;7.70;;;6.13;;
15198;SDS011;7700;48.654;9.070;2022-12-07T15:14:35;7.33;;;5.73;;
15198;SDS011;7700;48.654;9.070;2022-12-07T15:17:01;16.33;;;10.30;;
15198;SDS011;7700;48.654;9.070;2022-12-07T15:19:27;14.33;;;9.73;;
15198;SDS011;7700;48.654;9.070;2022-12-07T15:21:53;20.53;;;13.47;;
15198;SDS011;7700;48.654;9.070;2022-12-07T15:24:20;14.63;;;11.13;;
15198;SDS011;7700;48.654;9.070;2022-12-07T15:26:46;14.23;;;12.10;;
15198;SDS011;7700;48.654;9.070;2022-12-07T15:29:13;8.60;;;7.70;;
15198;SDS011;7700;48.654;9.070;2022-12-07T15:31:40;5.90;;;5.30;;
15198;SDS011;7700;48.654;9.070;2022-12-07T15:34:07;8.00;;;7.20;;
15198;SDS011;7700;48.654;9.070;2022-12-07T15:36:33;7.63;;;6.93;;
15198;SDS011;7700;48.654;9.070;2022-12-07T15:38:59;7.43;;;6.27;;
15198;SDS011;7700;48.654;9.070;2022-12-07T15:41:25;5.53;;;4.70;;
15198;SDS011;7700;48.654;9.070;2022-12-07T15:43:51;5.43;;;4.80;;
15198;SDS011;7700;48.654;9.070;2022-12-07T15:46:36;6.10;;;5.50;;
15198;SDS011;7700;48.654;9.070;2022-12-07T15:49:03;6.23;;;5.17;;
15198;SDS011;7700;48.654;9.070;2022-12-07T15:51:30;7.00;;;6.30;;
15198;SDS011;7700;48.654;9.070;2022-12-07T15:53:57;6.87;;;6.17;;
15198;SDS011;7700;48.654;9.070;2022-12-07T15:56:23;10.97;;;7.10;;
15198;SDS011;7700;48.654;9.070;2022-12-07T15:58:50;6.60;;;5.97;;
15198;SDS011;7700;48.654;9.070;2022-12-07T16:01:17;8.77;;;6.20;;
15198;SDS011;7700;48.654;9.070;2022-12-07T16:03:43;10.00;;;6.93;;
15198;SDS011;7700;48.654;9.070;2022-12-07T16:06:09;11.93;;;6.93;;
15198;SDS011;7700;48.654;9.070;2022-12-07T16:08:35;9.43;;;7.30;;
15198;SDS011;7700;48.654;9.070;2022-12-07T16:11:05;10.07;;;7.57;;
15198;SDS011;7700;48.654;9.070;2022-12-07T16:13:32;11.33;;;7.67;;
15198;SDS011;7700;48.654;9.070;2022-12-07T16:15:58;8.13;;;7.37;;
15198;SDS011;7700;48.654;9.070;2022-12-07T16:18:24;10.00;;;6.87;;
15198;SDS011;7700;48.654;9.070;2022-12-07T16:20:49;7.43;;;6.47;;
15198;SDS011;7700;48.654;9.070;2022-12-07T16:23:16;10.10;;;6.73;;
15198;SDS011;7700;48.654;9.070;2022-12-07T16:25:42;11.20;;;7.57;;
15198;SDS011;7700;48.654;9.070;2022-12-07T16:28:07;9.23;;;8.07;;
15198;SDS011;7700;48.654;9.070;2022-12-07T16:30:33;8.63;;;7.23;;
15198;SDS011;7700;48.654;9.070;2022-12-07T16:32:59;10.67;;;7.83;;
15198;SDS011;7700;48.654;9.070;2022-12-07T16:35:26;7.97;;;6.63;;
15198;SDS011;7700;48.654;9.070;2022-12-07T16:37:52;12.20;;;8.13;;
15198;SDS011;7700;48.654;9.070;2022-12-07T16:40:18;10.37;;;8.40;;
15198;SDS011;7700;48.654;9.070;2022-12-07T16:42:44;7.60;;;6.70;;
15198;SDS011;7700;48.654;9.070;2022-12-07T16:45:10;10.03;;;7.00;;
15198;SDS011;7700;48.654;9.070;2022-12-07T16:47:37;7.40;;;6.70;;
15198;SDS011;7700;48.654;9.070;2022-12-07T16:50:03;8.70;;;7.80;;
15198;SDS011;7700;48.654;9.070;2022-12-07T16:52:29;12.93;;;9.93;;